Time;durP1;ratioP1;P1;durP2;ratioP2;P2;SDS_P1;SDS_P2;PMS_P1;PMS_P2;Temp;Humidity;BMP_temperature;BMP_pressure;BME280_temperature;BME280_humidity;BME280_pressure;Samples;Min_cycle;Max_cycle;Signal;HPM_P1;HPM_P2
2021/09/25 00:01:09;;;;;;;63.75;13.95;;;16.30;99.90;;;;;;5034935;28;20026;-78
2021/09/25 00:03:35;;;;;;;42.92;11.00;;;16.30;99.90;;;;;;5035021;28;20481;-78
2021/09/25 00:06:00;;;;;;;75.85;11.70;;;16.30;99.90;;;;;;5034670;28;20101;-78
2021/09/25 00:08:26;;;;;;;55.15;10.93;;;16.30;99.90;;;;;;5034922;28;20029;-78
2021/09/25 00:10:52;;;;;;;55.00;12.68;;;16.30;99.90;;;;;;5016920;28;20486;-78
2021/09/25 00:13:17;;;;;;;70.05;12.55;;;16.40;99.90;;;;;;5034896;28;20030;-78
2021/09/25 00:15:43;;;;;;;60.22;12.23;;;16.40;99.90;;;;;;5016859;28;20025;-78
2021/09/25 00:18:08;;;;;;;54.72;11.60;;;16.40;99.90;;;;;;5034666;28;20024;-78
2021/09/25 00:20:35;;;;;;;48.03;11.27;;;16.30;99.90;;;;;;5034585;28;20025;-78
2021/09/25 00:23:01;;;;;;;54.42;11.30;;;16.30;99.90;;;;;;5034606;28;20095;-78
2021/09/25 00:25:27;;;;;;;61.22;11.43;;;16.30;99.90;;;;;;5034352;28;20017;-78
2021/09/25 00:27:52;;;;;;;55.08;10.70;;;16.30;99.90;;;;;;5016819;28;20041;-77
2021/09/25 00:30:18;;;;;;;53.22;13.70;;;16.30;99.90;;;;;;5034476;28;20041;-78
2021/09/25 00:32:43;;;;;;;58.92;11.38;;;16.40;99.90;;;;;;5016733;28;20485;-78
2021/09/25 00:35:10;;;;;;;54.60;11.90;;;16.40;99.90;;;;;;5016629;28;20049;-78
2021/09/25 00:37:37;;;;;;;59.92;13.18;;;16.40;99.90;;;;;;5034155;28;20033;-79
2021/09/25 00:40:04;;;;;;;69.47;14.10;;;16.40;99.90;;;;;;5034311;28;20033;-78
2021/09/25 00:42:30;;;;;;;62.28;11.98;;;16.40;99.90;;;;;;5034217;28;20029;-78
2021/09/25 00:44:55;;;;;;;89.00;13.07;;;16.40;99.90;;;;;;5034049;28;20033;-79
2021/09/25 00:47:21;;;;;;;54.05;12.45;;;16.40;99.90;;;;;;5034269;28;20026;-78
2021/09/25 00:49:46;;;;;;;59.40;13.00;;;16.40;99.90;;;;;;5016259;28;20503;-79
2021/09/25 00:52:12;;;;;;;53.38;11.13;;;16.40;99.90;;;;;;5034102;28;20030;-78
2021/09/25 00:54:38;;;;;;;65.47;13.25;;;16.30;99.90;;;;;;5033856;28;20025;-78
2021/09/25 00:57:04;;;;;;;59.47;12.15;;;16.40;99.90;;;;;;5034062;28;20034;-79
2021/09/25 00:59:31;;;;;;;52.78;11.98;;;16.40;99.90;;;;;;5033863;28;20030;-77
2021/09/25 01:01:57;;;;;;;70.20;11.98;;;16.50;99.90;;;;;;5033898;28;20080;-79
2021/09/25 01:04:23;;;;;;;51.08;10.90;;;16.40;99.90;;;;;;5015793;28;20022;-78
2021/09/25 01:06:48;;;;;;;57.35;11.85;;;16.40;99.90;;;;;;5033817;28;20093;-78
2021/09/25 01:09:14;;;;;;;68.70;13.25;;;16.40;99.90;;;;;;5033768;28;20548;-79
2021/09/25 01:11:40;;;;;;;56.45;11.50;;;16.40;99.90;;;;;;5015787;28;20061;-78
2021/09/25 01:14:06;;;;;;;57.83;10.98;;;16.40;99.90;;;;;;5033342;28;20030;-77
2021/09/25 01:16:32;;;;;;;64.38;12.50;;;16.40;99.90;;;;;;5015786;28;20049;-77
2021/09/25 01:18:57;;;;;;;58.42;12.80;;;16.40;99.90;;;;;;5033528;28;20525;-78
2021/09/25 01:21:23;;;;;;;53.95;12.73;;;16.30;99.90;;;;;;5033508;28;20033;-79
2021/09/25 01:23:49;;;;;;;56.47;12.07;;;16.40;99.90;;;;;;5033246;28;20032;-78
2021/09/25 01:26:15;;;;;;;57.85;11.45;;;16.40;99.90;;;;;;5033485;28;20112;-78
2021/09/25 01:28:43;;;;;;;66.32;11.77;;;16.40;99.90;;;;;;5033430;28;20521;-77
2021/09/25 01:31:11;;;;;;;57.95;10.20;;;16.40;99.90;;;;;;5033086;28;20029;-78
2021/09/25 01:33:44;;;;;;;54.35;10.32;;;16.40;99.90;;;;;;5015555;28;20022;-78
2021/09/25 01:36:11;;;;;;;63.35;12.52;;;16.40;99.90;;;;;;5015638;28;20025;-77
2021/09/25 01:38:38;;;;;;;60.17;11.45;;;16.50;99.90;;;;;;5033166;28;20096;-77
2021/09/25 01:41:04;;;;;;;65.90;11.70;;;16.40;99.90;;;;;;5033132;28;20029;-78
2021/09/25 01:43:31;;;;;;;56.78;10.77;;;16.40;99.90;;;;;;5015208;28;20108;-79
2021/09/25 01:45:57;;;;;;;59.45;11.57;;;16.40;99.90;;;;;;5015188;28;20048;-78
2021/09/25 01:48:23;;;;;;;48.30;11.02;;;16.40;99.90;;;;;;5014704;28;20025;-77
2021/09/25 01:50:50;;;;;;;62.63;12.57;;;16.40;99.90;;;;;;5032890;28;20037;-79
2021/09/25 01:53:16;;;;;;;63.10;11.60;;;16.50;99.90;;;;;;5032928;28;20018;-78
2021/09/25 01:55:42;;;;;;;49.90;10.85;;;16.50;99.90;;;;;;5014923;28;20393;-78
2021/09/25 01:58:07;;;;;;;52.72;11.27;;;16.50;99.90;;;;;;5032714;28;20025;-78
2021/09/25 02:00:34;;;;;;;51.50;12.07;;;16.50;99.90;;;;;;4995750;28;20053;-78
2021/09/25 02:03:01;;;;;;;58.20;11.68;;;16.50;99.90;;;;;;4995408;28;20029;-78
2021/09/25 02:05:27;;;;;;;51.05;10.13;;;16.40;99.90;;;;;;4995254;28;20053;-78
2021/09/25 02:07:53;;;;;;;63.63;10.50;;;16.40;99.90;;;;;;5012901;28;20032;-78
2021/09/25 02:10:19;;;;;;;53.63;9.02;;;16.40;99.90;;;;;;5012802;28;20026;-78
2021/09/25 02:12:45;;;;;;;68.78;10.27;;;16.40;99.90;;;;;;5023436;28;20029;-78
2021/09/25 02:15:11;;;;;;;44.10;9.70;;;16.40;99.90;;;;;;5023246;28;20021;-78
2021/09/25 02:17:37;;;;;;;50.80;9.23;;;16.40;99.90;;;;;;5017696;28;20432;-78
2021/09/25 02:20:05;;;;;;;70.18;10.48;;;16.40;99.90;;;;;;5052567;28;20036;-78
2021/09/25 02:22:31;;;;;;;46.05;9.18;;;16.40;99.90;;;;;;5052185;28;20572;-77
2021/09/25 02:24:56;;;;;;;40.92;9.38;;;16.40;99.90;;;;;;5052003;28;20075;-78
2021/09/25 02:27:22;;;;;;;50.90;9.85;;;16.40;99.90;;;;;;5034255;28;20031;-78
2021/09/25 02:29:47;;;;;;;60.65;10.82;;;16.30;99.90;;;;;;5052205;28;20028;-79
2021/09/25 02:32:13;;;;;;;40.50;9.30;;;16.40;99.90;;;;;;5052122;28;20025;-78
2021/09/25 02:34:38;;;;;;;65.20;9.98;;;16.30;99.90;;;;;;5051905;28;20029;-79
2021/09/25 02:37:05;;;;;;;57.05;10.73;;;16.30;99.90;;;;;;5034240;28;20027;-78
2021/09/25 02:39:33;;;;;;;47.95;8.15;;;16.30;99.90;;;;;;5052106;28;20021;-77
2021/09/25 02:41:59;;;;;;;42.92;10.23;;;16.30;99.90;;;;;;5051735;28;20497;-78
2021/09/25 02:44:25;;;;;;;43.35;9.52;;;16.30;99.90;;;;;;5051744;28;20109;-78
2021/09/25 02:46:51;;;;;;;46.25;9.90;;;16.30;99.90;;;;;;5050024;28;20032;-78
2021/09/25 02:49:19;;;;;;;43.05;9.20;;;16.30;99.90;;;;;;5041088;28;20013;-78
2021/09/25 02:51:45;;;;;;;47.40;10.25;;;16.20;99.90;;;;;;5033874;28;20055;-78
2021/09/25 02:54:11;;;;;;;59.25;10.02;;;16.30;99.90;;;;;;5051549;28;20029;-78
2021/09/25 02:56:36;;;;;;;55.25;10.80;;;16.30;99.90;;;;;;5033932;28;20024;-78
2021/09/25 02:59:03;;;;;;;55.83;10.68;;;16.20;99.90;;;;;;5026942;28;20026;-78
2021/09/25 03:01:28;;;;;;;52.60;10.15;;;16.20;99.90;;;;;;5030767;28;20044;-78
2021/09/25 03:03:54;;;;;;;42.47;8.90;;;16.20;99.90;;;;;;5031586;28;20390;-78
2021/09/25 03:06:26;;;;;;;41.17;8.38;;;16.20;99.90;;;;;;5014109;28;20064;-79
2021/09/25 03:08:52;;;;;;;41.08;8.52;;;16.10;99.90;;;;;;5031661;28;20426;-78
2021/09/25 03:11:19;;;;;;;46.33;9.25;;;16.10;99.90;;;;;;5013716;28;20075;-78
2021/09/25 03:13:45;;;;;;;56.97;10.35;;;16.10;99.90;;;;;;5031434;28;20060;-78
2021/09/25 03:16:12;;;;;;;48.15;9.50;;;16.10;99.90;;;;;;5031666;28;20436;-78
2021/09/25 03:18:37;;;;;;;48.40;10.00;;;16.10;99.90;;;;;;5031650;28;20029;-79
2021/09/25 03:21:03;;;;;;;49.90;9.15;;;16.10;99.90;;;;;;5013875;28;20405;-78
2021/09/25 03:23:29;;;;;;;34.83;7.97;;;16.10;99.90;;;;;;5031627;28;20034;-78
2021/09/25 03:25:54;;;;;;;47.03;8.57;;;16.10;99.90;;;;;;5013676;28;20025;-78
2021/09/25 03:28:20;;;;;;;38.78;9.55;;;16.10;99.90;;;;;;5031448;28;20026;-78
2021/09/25 03:30:46;;;;;;;45.05;7.88;;;16.10;99.90;;;;;;5031409;28;20039;-78
2021/09/25 03:33:11;;;;;;;51.70;9.35;;;16.00;99.90;;;;;;5013901;28;20022;-78
2021/09/25 03:35:37;;;;;;;50.28;9.45;;;16.00;99.90;;;;;;5013660;28;20113;-78
2021/09/25 03:38:02;;;;;;;52.55;10.38;;;16.00;99.90;;;;;;5013817;28;20025;-77
2021/09/25 03:40:29;;;;;;;35.53;7.75;;;16.00;99.90;;;;;;5031485;28;20524;-78
2021/09/25 03:42:55;;;;;;;51.58;8.10;;;15.90;99.90;;;;;;5013601;28;20041;-78
2021/09/25 03:45:20;;;;;;;31.48;7.20;;;15.90;99.90;;;;;;5031270;28;20021;-79
2021/09/25 03:47:46;;;;;;;56.22;8.40;;;16.00;99.90;;;;;;5013701;28;20021;-78
2021/09/25 03:50:13;;;;;;;41.03;8.00;;;16.00;99.90;;;;;;5013552;28;20482;-78
2021/09/25 03:52:38;;;;;;;49.40;8.85;;;16.00;99.90;;;;;;5031330;28;20025;-78
2021/09/25 03:55:06;;;;;;;42.88;7.80;;;16.00;99.90;;;;;;5013297;28;20025;-78
2021/09/25 03:57:32;;;;;;;58.65;7.80;;;16.00;99.90;;;;;;5031260;28;20086;-78
2021/09/25 03:59:57;;;;;;;45.40;7.75;;;16.00;99.90;;;;;;4999203;28;20502;-78
2021/09/25 04:02:23;;;;;;;40.50;6.93;;;15.90;99.90;;;;;;5011350;28;20180;-78
2021/09/25 04:04:49;;;;;;;43.17;8.23;;;15.90;99.90;;;;;;5011281;28;20030;-78
2021/09/25 04:07:14;;;;;;;44.45;7.90;;;15.80;99.90;;;;;;4994134;28;20032;-78
2021/09/25 04:09:40;;;;;;;43.80;7.28;;;15.80;99.90;;;;;;4993819;28;20061;-78
2021/09/25 04:12:06;;;;;;;49.00;7.60;;;15.80;99.90;;;;;;4995459;28;20701;-79
2021/09/25 04:14:31;;;;;;;54.92;8.70;;;15.80;99.90;;;;;;5014864;28;20494;-79
2021/09/25 04:16:57;;;;;;;49.58;9.57;;;15.80;99.90;;;;;;5015047;28;20025;-79
2021/09/25 04:19:22;;;;;;;47.25;9.13;;;15.90;99.90;;;;;;5015037;28;20076;-78
2021/09/25 04:21:49;;;;;;;34.22;7.93;;;15.80;99.90;;;;;;5014903;28;20033;-78
2021/09/25 04:24:15;;;;;;;32.03;6.18;;;15.80;99.90;;;;;;4997105;28;20018;-78
2021/09/25 04:26:41;;;;;;;39.20;6.90;;;15.70;99.90;;;;;;4997232;28;20030;-78
2021/09/25 04:29:06;;;;;;;39.25;6.85;;;15.80;99.90;;;;;;4997237;28;20395;-78
2021/09/25 04:31:35;;;;;;;34.60;6.32;;;15.60;99.90;;;;;;4997069;28;20061;-78
2021/09/25 04:34:02;;;;;;;39.30;7.60;;;15.50;99.90;;;;;;4996845;28;20092;-78
2021/09/25 04:36:28;;;;;;;38.95;6.90;;;15.50;99.90;;;;;;4997084;28;20025;-78
2021/09/25 04:38:54;;;;;;;37.85;8.07;;;15.60;99.90;;;;;;4996980;28;20079;-79
2021/09/25 04:41:19;;;;;;;45.92;6.53;;;15.60;99.90;;;;;;4996945;28;20037;-78
2021/09/25 04:43:45;;;;;;;35.95;7.82;;;15.60;99.90;;;;;;4996753;28;20030;-78
2021/09/25 04:46:10;;;;;;;58.75;9.15;;;15.60;99.90;;;;;;5014516;28;20410;-78
2021/09/25 04:48:36;;;;;;;41.75;7.22;;;15.70;99.90;;;;;;4996925;28;20026;-79
2021/09/25 04:51:01;;;;;;;45.53;8.65;;;15.60;99.90;;;;;;5014224;28;20034;-78
2021/09/25 04:53:30;;;;;;;49.78;9.02;;;15.60;99.90;;;;;;5014272;28;20022;-78
2021/09/25 04:55:56;;;;;;;50.65;8.10;;;15.60;99.90;;;;;;4996819;28;20049;-78
2021/09/25 04:58:27;;;;;;;38.30;7.47;;;15.50;99.90;;;;;;4996660;28;20053;-78
2021/09/25 05:00:53;;;;;;;28.15;5.95;;;15.40;99.90;;;;;;5014084;28;20065;-78
2021/09/25 05:03:18;;;;;;;51.83;7.93;;;15.30;99.90;;;;;;5014212;28;20049;-78
2021/09/25 05:05:44;;;;;;;57.47;10.57;;;15.30;99.90;;;;;;4996294;28;20393;-78
2021/09/25 05:08:09;;;;;;;49.20;7.68;;;15.20;99.90;;;;;;5013925;28;20067;-78
2021/09/25 05:10:35;;;;;;;39.33;8.52;;;15.20;99.90;;;;;;5013914;28;20061;-78
2021/09/25 05:13:01;;;;;;;54.22;8.93;;;15.30;99.90;;;;;;5014008;28;20053;-78
2021/09/25 05:15:26;;;;;;;58.03;8.75;;;15.20;99.90;;;;;;5036018;28;20086;-78
2021/09/25 05:17:52;;;;;;;45.75;8.13;;;15.20;99.90;;;;;;5036732;28;20026;-78
2021/09/25 05:20:17;;;;;;;56.22;8.75;;;15.10;99.90;;;;;;5033554;28;20030;-78
2021/09/25 05:22:43;;;;;;;53.53;8.18;;;15.10;99.90;;;;;;5032754;28;20117;-78
2021/09/25 05:25:09;;;;;;;62.03;8.70;;;15.20;99.90;;;;;;5032987;28;20037;-78
2021/09/25 05:27:35;;;;;;;47.22;7.97;;;15.20;99.90;;;;;;5033541;28;20100;-78
2021/09/25 05:30:02;;;;;;;55.58;8.57;;;15.20;99.90;;;;;;5033356;28;20018;-78
2021/09/25 05:32:27;;;;;;;55.50;9.60;;;15.30;99.90;;;;;;5015599;28;20113;-78
2021/09/25 05:34:53;;;;;;;43.30;7.57;;;15.40;99.90;;;;;;5015492;28;20049;-78
2021/09/25 05:37:19;;;;;;;75.22;10.13;;;15.40;99.90;;;;;;5033189;28;20028;-78
2021/09/25 05:39:45;;;;;;;64.43;8.85;;;15.40;99.90;;;;;;5033316;28;20025;-79
2021/09/25 05:42:13;;;;;;;47.78;7.07;;;15.50;99.90;;;;;;5015400;28;20070;-78
2021/09/25 05:44:38;;;;;;;60.25;8.40;;;15.20;99.90;;;;;;5015225;28;20022;-78
2021/09/25 05:47:04;;;;;;;53.47;8.80;;;15.30;99.90;;;;;;5033178;28;20029;-78
2021/09/25 05:49:30;;;;;;;52.55;8.63;;;15.30;99.90;;;;;;5021923;28;20033;-78
2021/09/25 05:51:55;;;;;;;41.63;7.03;;;15.40;99.90;;;;;;5020472;28;20028;-79
2021/09/25 05:54:21;;;;;;;67.90;9.68;;;15.40;99.90;;;;;;5015013;28;20039;-78
2021/09/25 05:56:46;;;;;;;41.38;6.75;;;15.40;99.90;;;;;;5032974;28;20096;-78
2021/09/25 05:59:12;;;;;;;44.20;9.70;;;15.40;99.90;;;;;;5032826;28;20029;-78
2021/09/25 06:01:38;;;;;;;41.13;8.68;;;15.50;99.90;;;;;;5009752;28;20059;-79
2021/09/25 06:04:03;;;;;;;51.15;8.00;;;15.50;99.90;;;;;;5012584;28;20486;-78
2021/09/25 06:06:29;;;;;;;45.20;7.25;;;15.60;99.90;;;;;;5012586;28;20034;-78
2021/09/25 06:08:55;;;;;;;50.42;8.32;;;15.40;99.90;;;;;;5012700;28;20445;-78
2021/09/25 06:11:20;;;;;;;51.63;6.97;;;15.40;99.90;;;;;;5012648;28;20096;-78
2021/09/25 06:13:46;;;;;;;49.65;7.45;;;15.30;99.90;;;;;;5011198;28;20506;-78
2021/09/25 06:16:12;;;;;;;68.00;8.98;;;15.30;99.90;;;;;;5011451;28;20029;-78
2021/09/25 06:18:38;;;;;;;54.95;9.75;;;15.20;99.90;;;;;;5012660;28;20026;-78
2021/09/25 06:21:03;;;;;;;54.17;7.95;;;15.40;99.90;;;;;;5012399;28;20037;-78
2021/09/25 06:23:29;;;;;;;43.65;8.02;;;15.50;99.90;;;;;;5011389;28;20371;-79
2021/09/25 06:25:54;;;;;;;47.47;8.20;;;15.60;99.90;;;;;;5012338;28;20026;-79
2021/09/25 06:28:20;;;;;;;51.08;7.93;;;15.70;99.90;;;;;;4994955;28;20099;-78
2021/09/25 06:30:45;;;;;;;56.75;8.35;;;15.90;99.90;;;;;;5011039;28;20446;-78
2021/09/25 06:33:11;;;;;;;42.50;7.35;;;16.00;99.90;;;;;;5011121;28;20026;-78
2021/09/25 06:35:37;;;;;;;48.25;6.68;;;16.10;99.90;;;;;;5011957;28;20706;-78
2021/09/25 06:38:03;;;;;;;60.17;7.90;;;16.20;99.90;;;;;;5011284;28;20058;-78
2021/09/25 06:40:29;;;;;;;53.35;7.95;;;16.20;99.90;;;;;;5012349;28;20482;-78
2021/09/25 06:42:55;;;;;;;43.80;7.43;;;16.30;99.90;;;;;;4994688;28;20032;-78
2021/09/25 06:45:21;;;;;;;34.95;5.43;;;16.40;99.90;;;;;;5012010;28;20045;-78
2021/09/25 06:47:46;;;;;;;33.90;5.78;;;16.50;99.90;;;;;;5010939;28;20026;-78
2021/09/25 06:50:12;;;;;;;26.98;6.45;;;16.50;99.90;;;;;;5010760;28;20029;-78
2021/09/25 06:52:38;;;;;;;43.35;6.13;;;16.50;99.90;;;;;;5012082;28;20072;-79
2021/09/25 06:55:05;;;;;;;23.98;4.40;;;16.50;99.90;;;;;;5011992;28;20021;-78
2021/09/25 06:57:31;;;;;;;37.65;6.85;;;16.50;99.90;;;;;;5012001;28;20026;-78
2021/09/25 06:59:57;;;;;;;39.35;5.70;;;16.70;99.90;;;;;;5026300;28;20040;-77
2021/09/25 07:02:23;;;;;;;21.75;4.68;;;16.60;99.90;;;;;;5031606;28;20037;-79
2021/09/25 07:04:49;;;;;;;40.92;5.70;;;16.60;99.90;;;;;;5013669;28;20032;-78
2021/09/25 07:07:14;;;;;;;17.92;3.58;;;16.60;99.90;;;;;;5031638;28;20030;-78
2021/09/25 07:09:41;;;;;;;20.48;4.70;;;16.60;99.90;;;;;;5013837;28;20068;-78
2021/09/25 07:12:09;;;;;;;20.73;4.10;;;16.50;99.90;;;;;;5031654;28;20045;-78
2021/09/25 07:14:35;;;;;;;33.00;5.55;;;16.50;99.90;;;;;;5031388;28;20029;-78
2021/09/25 07:17:00;;;;;;;30.27;5.32;;;16.40;99.90;;;;;;5031615;28;20030;-78
2021/09/25 07:19:26;;;;;;;24.17;4.38;;;16.40;99.90;;;;;;5013704;28;20033;-78
2021/09/25 07:21:51;;;;;;;32.55;4.70;;;16.40;99.90;;;;;;5031624;28;20033;-78
2021/09/25 07:24:17;;;;;;;26.67;4.70;;;16.40;99.90;;;;;;5031369;28;20023;-78
2021/09/25 07:26:43;;;;;;;36.17;6.65;;;16.40;99.90;;;;;;5031631;28;20405;-79
2021/09/25 07:29:08;;;;;;;33.15;5.18;;;16.40;99.90;;;;;;5031613;28;20022;-78
2021/09/25 07:31:34;;;;;;;17.58;3.90;;;16.40;99.90;;;;;;5013563;28;20029;-78
2021/09/25 07:34:00;;;;;;;25.25;4.03;;;16.50;99.90;;;;;;5013516;28;20490;-78
2021/09/25 07:36:27;;;;;;;31.15;5.35;;;16.70;99.90;;;;;;5013739;28;20033;-78
2021/09/25 07:38:53;;;;;;;19.67;4.32;;;16.80;99.90;;;;;;5014166;28;20033;-78
2021/09/25 07:41:19;;;;;;;32.55;4.75;;;16.80;99.90;;;;;;5013604;28;20029;-78
2021/09/25 07:43:45;;;;;;;36.33;5.32;;;16.80;99.90;;;;;;5031253;28;20026;-77
2021/09/25 07:46:10;;;;;;;25.35;4.38;;;17.00;99.90;;;;;;5014040;28;20448;-78
2021/09/25 07:48:36;;;;;;;26.85;4.03;;;16.90;99.90;;;;;;5035107;28;20034;-78
2021/09/25 07:51:01;;;;;;;25.05;3.97;;;16.90;99.90;;;;;;5035160;28;20061;-78
2021/09/25 07:53:27;;;;;;;20.63;3.45;;;16.90;99.90;;;;;;5035089;28;20030;-78
2021/09/25 07:55:52;;;;;;;19.83;4.22;;;16.90;99.90;;;;;;5035001;28;20029;-78
2021/09/25 07:58:18;;;;;;;23.40;3.67;;;17.10;99.90;;;;;;5034190;28;20040;-79
2021/09/25 08:00:44;;;;;;;24.60;3.80;;;17.10;99.90;;;;;;5014990;28;20030;-78
2021/09/25 08:03:09;;;;;;;31.92;4.03;;;17.10;99.90;;;;;;4997615;28;20032;-78
2021/09/25 08:05:35;;;;;;;26.70;4.10;;;17.20;99.90;;;;;;4997396;28;20029;-78
2021/09/25 08:08:01;;;;;;;14.43;3.28;;;17.30;99.90;;;;;;4997698;28;20022;-78
2021/09/25 08:10:26;;;;;;;27.10;3.90;;;17.30;99.90;;;;;;4997500;28;20032;-78
2021/09/25 08:12:52;;;;;;;21.77;3.55;;;17.50;99.90;;;;;;5014909;28;20097;-78
2021/09/25 08:15:17;;;;;;;20.83;4.00;;;17.70;99.90;;;;;;5002198;28;20049;-78
2021/09/25 08:17:44;;;;;;;25.83;4.40;;;17.80;99.90;;;;;;5032012;28;20025;-78
2021/09/25 08:20:13;;;;;;;22.23;4.53;;;17.70;99.90;;;;;;5013138;28;20099;-78
2021/09/25 08:22:40;;;;;;;18.05;2.90;;;17.80;99.90;;;;;;5030951;28;20033;-78
2021/09/25 08:25:06;;;;;;;22.80;3.58;;;17.90;99.90;;;;;;5029954;28;20405;-78
2021/09/25 08:27:32;;;;;;;15.20;2.90;;;17.90;99.90;;;;;;5021859;28;20919;-78
2021/09/25 08:29:58;;;;;;;18.27;3.72;;;18.00;99.90;;;;;;5028402;28;20029;-77
2021/09/25 08:32:23;;;;;;;21.60;3.78;;;18.10;99.90;;;;;;5032045;28;20033;-78
2021/09/25 08:34:49;;;;;;;23.70;4.03;;;18.10;99.90;;;;;;5034288;28;20489;-78
2021/09/25 08:37:15;;;;;;;20.45;2.85;;;18.20;99.90;;;;;;5016654;28;20028;-78
2021/09/25 08:39:41;;;;;;;18.50;2.97;;;18.30;99.90;;;;;;5034304;28;20022;-78
2021/09/25 08:42:07;;;;;;;22.42;3.10;;;18.40;99.90;;;;;;5016522;28;20547;-78
2021/09/25 08:44:34;;;;;;;20.73;3.47;;;18.30;99.90;;;;;;5033951;28;20060;-78
2021/09/25 08:46:59;;;;;;;15.18;3.65;;;18.30;99.90;;;;;;5016274;28;20505;-78
2021/09/25 08:49:25;;;;;;;17.63;3.50;;;18.40;99.90;;;;;;5019776;28;20025;-78
2021/09/25 08:51:51;;;;;;;24.48;3.47;;;18.50;99.90;;;;;;5025166;28;20370;-78
2021/09/25 08:54:17;;;;;;;20.52;3.35;;;18.80;99.90;;;;;;5035777;28;20044;-78
2021/09/25 08:56:42;;;;;;;20.38;2.50;;;18.70;99.90;;;;;;5036192;28;20056;-78
2021/09/25 08:59:08;;;;;;;14.88;2.88;;;18.70;99.90;;;;;;5046043;28;20462;-78
2021/09/25 09:01:34;;;;;;;21.23;3.97;;;18.70;99.90;;;;;;5033782;28;20037;-78
2021/09/25 09:04:00;;;;;;;15.82;3.30;;;18.70;99.90;;;;;;5015802;28;20091;-78
2021/09/25 09:06:37;;;;;;;14.95;3.45;;;18.90;99.90;;;;;;5033957;28;20025;-78
2021/09/25 09:09:08;;;;;;;24.15;4.70;;;19.00;99.90;;;;;;5033936;28;20029;-78
2021/09/25 09:11:46;;;;;;;20.98;3.10;;;19.00;99.90;;;;;;5033623;28;20049;-78
2021/09/25 09:14:14;;;;;;;21.52;3.75;;;19.00;99.90;;;;;;5033399;28;20052;-78
2021/09/25 09:16:41;;;;;;;17.38;3.15;;;19.00;99.90;;;;;;5016010;28;20025;-79
2021/09/25 09:19:06;;;;;;;23.55;3.30;;;18.80;99.90;;;;;;5033625;28;20084;-79
2021/09/25 09:21:33;;;;;;;24.27;4.53;;;18.80;99.90;;;;;;5033559;28;20029;-79
2021/09/25 09:24:02;;;;;;;21.45;3.53;;;18.80;99.90;;;;;;5015651;28;20763;-79
2021/09/25 09:26:39;;;;;;;21.17;3.05;;;18.80;99.90;;;;;;5033271;28;20021;-79
2021/09/25 09:29:07;;;;;;;14.80;3.00;;;18.90;99.90;;;;;;5015783;28;20039;-79
2021/09/25 09:31:38;;;;;;;15.57;2.90;;;18.90;99.90;;;;;;5033318;28;20037;-79
2021/09/25 09:34:06;;;;;;;19.40;3.13;;;18.90;99.90;;;;;;5033252;28;20083;-79
2021/09/25 09:36:35;;;;;;;24.85;4.03;;;18.90;99.90;;;;;;5015456;28;20509;-78
2021/09/25 09:39:19;;;;;;;18.27;2.97;;;18.60;99.90;;;;;;5033084;28;20037;-78
2021/09/25 09:41:47;;;;;;;21.65;3.65;;;18.70;99.90;;;;;;5015429;28;20061;-78
2021/09/25 09:44:21;;;;;;;10.95;2.75;;;18.70;99.90;;;;;;5032860;28;20029;-79
2021/09/25 09:46:49;;;;;;;11.98;2.60;;;18.80;99.90;;;;;;5033188;28;20022;-79
2021/09/25 09:49:24;;;;;;;26.50;3.00;;;19.00;99.90;;;;;;5033098;28;20036;-79
2021/09/25 09:51:52;;;;;;;22.88;3.10;;;19.10;99.90;;;;;;5015322;28;20025;-79
2021/09/25 09:54:19;;;;;;;25.90;2.63;;;19.10;99.90;;;;;;5032817;28;20024;-78
2021/09/25 09:56:45;;;;;;;20.15;3.15;;;19.10;99.90;;;;;;5015156;28;20018;-79
2021/09/25 09:59:11;;;;;;;20.83;3.30;;;19.20;99.90;;;;;;5007069;28;20028;-79
2021/09/25 10:01:38;;;;;;;20.58;3.30;;;19.20;99.90;;;;;;4995279;28;20490;-78
2021/09/25 10:04:06;;;;;;;14.18;2.95;;;19.30;99.90;;;;;;5012661;28;20045;-79
2021/09/25 10:06:35;;;;;;;14.25;2.50;;;19.50;99.90;;;;;;5013087;28;20156;-78
2021/09/25 10:09:02;;;;;;;16.52;2.88;;;19.50;99.90;;;;;;5012491;28;20072;-79
2021/09/25 10:11:30;;;;;;;30.10;4.28;;;19.70;99.90;;;;;;4995003;28;20375;-79
2021/09/25 10:13:56;;;;;;;15.30;3.15;;;19.50;99.90;;;;;;5012654;28;20064;-79
2021/09/25 10:16:22;;;;;;;13.77;2.35;;;19.60;99.90;;;;;;4995203;28;20029;-79
2021/09/25 10:18:48;;;;;;;11.70;2.33;;;19.50;99.90;;;;;;4994982;28;20552;-78
2021/09/25 10:21:14;;;;;;;17.38;2.88;;;19.60;99.90;;;;;;4995140;28;20411;-79
2021/09/25 10:23:48;;;;;;;10.18;2.70;;;19.70;99.90;;;;;;4994972;28;20034;-79
2021/09/25 10:26:16;;;;;;;13.38;2.72;;;19.80;99.90;;;;;;5012672;28;20029;-79
2021/09/25 10:28:56;;;;;;;12.35;2.13;;;19.70;99.90;;;;;;5012536;28;20053;-79
2021/09/25 10:31:22;;;;;;;15.18;2.70;;;19.50;99.90;;;;;;5012533;28;20026;-80
2021/09/25 10:34:09;;;;;;;15.18;2.85;;;19.40;99.90;;;;;;5012220;28;20022;-79
2021/09/25 10:36:39;;;;;;;15.43;3.08;;;19.40;99.90;;;;;;5012453;28;20018;-79
2021/09/25 10:39:25;;;;;;;16.42;2.53;;;19.30;99.90;;;;;;5012277;28;20117;-79
2021/09/25 10:42:12;;;;;;;18.77;2.47;;;19.40;99.90;;;;;;4994717;28;20041;-79
2021/09/25 10:44:55;;;;;;;7.10;2.20;;;19.30;99.90;;;;;;5012866;28;20022;-79
2021/09/25 10:47:32;;;;;;;11.45;2.75;;;19.40;99.90;;;;;;4994725;28;20030;-79
2021/09/25 10:49:59;;;;;;;11.57;1.90;;;19.70;99.90;;;;;;4994563;28;20490;-79
2021/09/25 10:52:40;;;;;;;11.82;2.17;;;19.80;99.90;;;;;;4994545;28;20391;-79
2021/09/25 10:55:22;;;;;;;14.38;2.30;;;19.90;99.90;;;;;;5012025;28;20018;-78
2021/09/25 10:58:10;;;;;;;12.90;1.90;;;20.00;99.90;;;;;;5012115;28;20097;-79
2021/09/25 11:01:05;;;;;;;13.60;2.65;;;19.90;99.90;;;;;;5011918;28;20500;-79
2021/09/25 11:03:46;;;;;;;7.43;1.75;;;19.70;99.90;;;;;;5012100;28;20061;-79
2021/09/25 11:06:26;;;;;;;18.15;2.60;;;19.60;99.90;;;;;;5012210;28;20026;-79
2021/09/25 11:09:00;;;;;;;10.00;3.13;;;19.40;99.90;;;;;;4994373;28;20037;-79
2021/09/25 11:11:46;;;;;;;;;;;19.30;99.90;;;;;;4994765;28;20034;-79
2021/09/25 11:14:19;;;;;;;8.65;2.22;;;19.20;99.90;;;;;;4994379;28;19909;-79
2021/09/25 11:16:46;;;;;;;11.23;3.00;;;19.20;99.90;;;;;;5012236;28;20018;-79
2021/09/25 11:19:26;;;;;;;10.63;2.08;;;19.20;99.90;;;;;;5012305;28;20025;-79
2021/09/25 11:22:07;;;;;;;7.38;1.95;;;19.20;99.90;;;;;;5036414;28;20520;-78
2021/09/25 11:24:42;;;;;;;10.73;1.85;;;18.90;99.90;;;;;;5018012;28;20033;-79
2021/09/25 11:27:19;;;;;;;7.88;1.77;;;18.70;99.90;;;;;;5018066;28;20029;-79
2021/09/25 11:30:09;;;;;;;11.45;1.88;;;18.50;99.90;;;;;;5035577;28;20025;-78
2021/09/25 11:32:44;;;;;;;17.83;3.25;;;18.40;99.90;;;;;;5017878;28;20109;-79
2021/09/25 11:35:13;;;;;;;8.63;1.88;;;18.30;99.90;;;;;;5035526;28;20044;-79
2021/09/25 11:38:17;;;;;;;8.73;1.90;;;18.30;99.90;;;;;;5035501;28;20025;-78
2021/09/25 11:40:52;;;;;;;12.85;2.33;;;18.30;99.90;;;;;;4935780;29;20047;-79
2021/09/25 11:43:20;;;;;;;8.55;2.20;;;18.40;99.90;;;;;;4919996;29;20118;-79
2021/09/25 11:45:48;;;;;;;9.07;2.38;;;18.40;99.90;;;;;;4989875;28;20037;-79
2021/09/25 11:48:17;;;;;;;7.90;2.75;;;18.50;99.90;;;;;;5035213;28;20106;-79
2021/09/25 11:50:46;;;;;;;8.00;2.70;;;18.70;99.90;;;;;;5018376;28;20516;-79
2021/09/25 11:53:14;;;;;;;11.93;2.65;;;18.70;99.90;;;;;;5046323;28;20017;-79
2021/09/25 11:55:41;;;;;;;10.25;1.75;;;18.70;99.90;;;;;;5035015;28;20029;-79
2021/09/25 11:58:12;;;;;;;11.18;2.42;;;18.60;99.90;;;;;;5017474;28;20029;-79
2021/09/25 12:00:48;;;;;;;14.32;3.08;;;18.60;99.90;;;;;;4997266;28;20084;-78
2021/09/25 12:03:15;;;;;;;18.75;2.88;;;18.50;99.90;;;;;;4997718;28;20030;-79
2021/09/25 12:05:49;;;;;;;13.43;4.60;;;18.40;99.90;;;;;;4997434;28;20030;-79
2021/09/25 12:08:21;;;;;;;17.92;8.65;;;18.30;99.90;;;;;;5015277;28;20052;-79
2021/09/25 12:10:55;;;;;;;34.88;7.72;;;18.40;99.90;;;;;;4997300;28;20490;-79
2021/09/25 12:13:22;;;;;;;14.73;3.00;;;18.50;99.90;;;;;;5015086;28;20442;-79
2021/09/25 12:15:50;;;;;;;15.98;2.78;;;18.30;99.90;;;;;;4997255;28;20022;-79
2021/09/25 12:18:25;;;;;;;16.35;2.45;;;18.40;99.90;;;;;;5001953;28;20034;-79
2021/09/25 12:21:11;;;;;;;12.98;2.45;;;18.50;99.90;;;;;;5018297;28;20398;-79
2021/09/25 12:23:41;;;;;;;13.60;2.47;;;18.50;99.90;;;;;;5016612;28;20485;-79
2021/09/25 12:26:19;;;;;;;7.68;1.88;;;18.60;99.90;;;;;;5034636;28;20041;-78
2021/09/25 12:28:51;;;;;;;16.00;3.08;;;18.60;99.90;;;;;;5016806;28;20112;-78
2021/09/25 12:31:46;;;;;;;13.57;2.42;;;18.90;99.90;;;;;;5034506;28;20021;-78
2021/09/25 12:34:17;;;;;;;13.48;2.50;;;18.90;99.90;;;;;;4995535;28;20037;-78
2021/09/25 12:36:45;;;;;;;15.98;2.80;;;19.20;99.90;;;;;;5034522;28;20097;-79
2021/09/25 12:39:30;;;;;;;17.52;2.47;;;19.30;99.90;;;;;;5034388;28;20041;-78